createdAt,value
2023-06-29T00:04:21.785Z,72.27
2023-06-29T00:14:22.356Z,72.98
2023-06-29T00:24:22.882Z,73.08
2023-06-29T00:34:23.491Z,74.02
2023-06-29T00:44:24.020Z,74.52
2023-06-29T00:54:24.595Z,75.98
2023-06-29T01:04:25.139Z,76.48
2023-06-29T01:14:25.716Z,76.82
2023-06-29T01:24:26.231Z,77.62
2023-06-29T01:34:26.813Z,78.03
2023-06-29T01:44:27.341Z,78.13
2023-06-29T01:54:27.935Z,78.67
2023-06-29T02:04:28.469Z,78.67
2023-06-29T02:14:29.009Z,78.97
2023-06-29T02:24:29.569Z,79.01
2023-06-29T02:34:30.102Z,78.97
2023-06-29T02:44:30.609Z,79.62
2023-06-29T02:54:31.214Z,80.12
2023-06-29T03:04:31.695Z,79.99
2023-06-29T03:14:32.217Z,80.39
2023-06-29T03:24:32.692Z,80.69
2023-06-29T03:34:33.203Z,80.79
2023-06-29T03:44:33.685Z,80.45
2023-06-29T03:54:34.226Z,80.45
2023-06-29T04:04:34.728Z,80.25
2023-06-29T04:14:35.237Z,77.15
2023-06-29T04:24:35.715Z,76.20
2023-06-29T04:34:36.234Z,74.86
2023-06-29T04:44:36.791Z,74.96
2023-06-29T04:54:37.333Z,75.29
2023-06-29T05:04:37.817Z,66.65
2023-06-29T05:14:38.324Z,62.39
2023-06-29T05:24:38.803Z,60.44
2023-06-29T05:34:39.331Z,58.36
2023-06-29T05:44:39.795Z,57.30
2023-06-29T05:54:47.358Z,57.13
2023-06-29T06:04:40.827Z,58.88
2023-06-29T06:14:41.456Z,59.21
2023-06-29T06:24:41.902Z,60.83
2023-06-29T06:34:42.422Z,60.11
2023-06-29T06:44:42.941Z,59.11
2023-06-29T06:54:43.479Z,57.48
2023-06-29T07:04:43.981Z,56.33
2023-06-29T07:14:44.511Z,55.96
2023-06-29T07:24:44.991Z,56.68
2023-06-29T07:34:45.511Z,56.09
2023-06-29T07:44:45.970Z,55.71
2023-06-29T07:54:46.524Z,55.81
2023-06-29T08:14:47.910Z,56.18
2023-06-29T08:24:48.390Z,55.19
2023-06-29T08:34:48.897Z,54.69
2023-06-29T08:44:49.376Z,54.59
2023-06-29T08:54:49.881Z,55.46
2023-06-29T09:04:50.359Z,56.16
2023-06-29T09:14:50.875Z,54.51
2023-06-29T09:25:04.715Z,53.02
2023-06-29T09:34:53.336Z,54.24
2023-06-29T09:44:52.852Z,54.24
2023-06-29T09:54:53.354Z,53.61
2023-06-29T10:04:54.949Z,53.06
2023-06-29T10:14:54.517Z,53.64
2023-06-29T10:24:55.004Z,53.83
2023-06-29T10:34:55.533Z,53.34
2023-06-29T10:44:56.030Z,52.04
2023-06-29T10:54:56.565Z,51.57
2023-06-29T11:04:57.046Z,50.85
2023-06-29T11:25:00.584Z,50.65
2023-06-29T11:34:59.166Z,50.35
2023-06-29T11:44:59.611Z,49.63
2023-06-29T11:55:07.142Z,51.40
2023-06-29T12:05:00.732Z,51.89
2023-06-29T12:15:01.321Z,51.23
2023-06-29T12:25:01.773Z,52.02
2023-06-29T12:35:02.310Z,51.92
2023-06-29T12:45:02.766Z,52.91
2023-06-29T12:55:03.293Z,50.83
2023-06-29T13:05:03.786Z,51.62
2023-06-29T13:15:04.311Z,51.10
2023-06-29T13:25:04.792Z,51.28
2023-06-29T13:35:05.318Z,50.68
2023-06-29T13:45:05.792Z,50.28
2023-06-29T13:55:06.291Z,50.28
2023-06-29T14:05:06.764Z,50.56
2023-06-29T14:15:07.290Z,49.54
2023-06-29T14:25:07.780Z,48.75
2023-06-29T14:35:08.359Z,49.44
2023-06-29T14:45:08.828Z,49.24
2023-06-29T14:55:09.368Z,49.12
2023-06-29T15:05:09.837Z,49.64
2023-06-29T15:15:11.845Z,49.96
2023-06-29T15:25:11.164Z,50.58
2023-06-29T15:35:11.742Z,50.58
2023-06-29T15:45:12.229Z,52.00
2023-06-29T15:55:12.765Z,53.08
2023-06-29T16:05:13.235Z,52.76
2023-06-29T16:15:13.778Z,50.85
2023-06-29T16:25:14.262Z,51.57
2023-06-29T16:35:14.770Z,51.20
2023-06-29T16:45:15.268Z,52.29
2023-06-29T16:55:15.832Z,52.19
2023-06-29T17:05:16.297Z,52.31
2023-06-29T17:15:16.809Z,52.81
2023-06-29T17:25:17.293Z,52.39
2023-06-29T17:35:17.824Z,52.12
2023-06-29T17:45:18.298Z,53.76
2023-06-29T17:55:18.821Z,54.16
2023-06-29T18:05:26.418Z,54.85
2023-06-29T18:15:19.932Z,55.77
2023-06-29T18:25:20.402Z,56.17
2023-06-29T18:35:20.942Z,56.89
2023-06-29T18:45:21.453Z,57.69
2023-06-29T18:55:21.981Z,58.91
2023-06-29T19:05:22.469Z,60.13
2023-06-29T19:15:22.993Z,60.96
2023-06-29T19:25:23.484Z,62.15
2023-06-29T19:35:24.012Z,62.29
2023-06-29T19:45:24.583Z,63.91
2023-06-29T19:55:25.102Z,63.71
2023-06-29T20:05:25.600Z,63.81
2023-06-29T20:15:26.157Z,64.04
2023-06-29T20:25:26.698Z,64.44
2023-06-29T20:35:27.263Z,64.74
2023-06-29T20:45:27.966Z,64.84
2023-06-29T20:55:28.523Z,64.14
2023-06-29T21:05:29.106Z,64.34
2023-06-29T21:15:29.852Z,64.64
2023-06-29T21:25:30.404Z,64.77
2023-06-29T21:35:30.974Z,65.26
2023-06-29T21:45:31.519Z,65.37
2023-06-29T21:55:32.088Z,65.40
2023-06-29T22:05:32.623Z,65.50
2023-06-29T22:15:33.227Z,66.00
2023-06-29T22:25:33.786Z,66.00
2023-06-29T22:35:34.434Z,66.09
2023-06-29T22:45:35.004Z,66.20
2023-06-29T22:55:35.575Z,66.60
2023-06-29T23:05:36.125Z,67.19
2023-06-29T23:15:36.690Z,67.13
2023-06-29T23:25:37.292Z,67.83
2023-06-29T23:35:37.888Z,67.23
2023-06-29T23:45:38.421Z,67.23
2023-06-29T23:55:39.061Z,67.83
